Time,TemperatureF,DewpointF,PressureIn,WindDirection,WindDirectionDegrees,WindSpeedMPH,WindSpeedGustMPH,Humidity,HourlyPrecipIn,Conditions,Clouds,dailyrainin,SolarRadiationWatts/m^2,SoftwareType,DateUTC
2013-08-19 00:02:00,62.0,42.0,-100.00,SE,129,7.0,11.0,47,0.00,,,0.00,0.000000,,2013-08-19 06:02:00,
2013-08-19 00:11:00,62.0,42.0,-100.00,SE,129,7.0,11.0,47,0.00,,,0.00,0.000000,,2013-08-19 06:11:00,
2013-08-19 00:42:00,60.0,41.0,-100.00,ESE,122,6.0,10.0,50,0.00,,,0.00,0.000000,,2013-08-19 06:42:00,
2013-08-19 00:52:00,60.0,41.0,-100.00,ESE,122,6.0,10.0,50,0.00,,,0.00,0.000000,,2013-08-19 06:52:00,
2013-08-19 01:01:00,60.0,41.0,-100.00,ESE,122,6.0,10.0,50,0.00,,,0.00,0.000000,,2013-08-19 07:01:00,
2013-08-19 01:11:00,60.0,41.0,-100.00,ESE,122,6.0,10.0,50,0.00,,,0.00,0.000000,,2013-08-19 07:11:00,
2013-08-19 01:42:00,61.0,42.0,-100.00,SE,132,9.0,11.0,50,0.00,,,0.00,0.000000,,2013-08-19 07:42:00,
2013-08-19 01:52:00,61.0,42.0,-100.00,SE,132,9.0,11.0,50,0.00,,,0.00,0.000000,,2013-08-19 07:52:00,
2013-08-19 02:01:00,61.0,42.0,-100.00,SE,132,9.0,11.0,50,0.00,,,0.00,0.000000,,2013-08-19 08:01:00,
2013-08-19 02:11:00,61.0,42.0,-100.00,SE,132,9.0,11.0,50,0.00,,,0.00,0.000000,,2013-08-19 08:11:00,
2013-08-19 02:42:00,60.0,44.0,-100.00,SE,135,9.0,12.0,55,0.00,,,0.00,0.000000,,2013-08-19 08:42:00,
2013-08-19 02:52:00,60.0,44.0,-100.00,SE,135,9.0,12.0,55,0.00,,,0.00,0.000000,,2013-08-19 08:52:00,
2013-08-19 03:01:00,60.0,44.0,-100.00,SE,135,9.0,12.0,55,0.00,,,0.00,0.000000,,2013-08-19 09:01:00,
2013-08-19 03:11:00,60.0,44.0,-100.00,SE,135,9.0,12.0,55,0.00,,,0.00,0.000000,,2013-08-19 09:11:00,
2013-08-19 03:12:00,59.0,42.0,-100.00,SE,136,6.0,11.0,54,0.00,,,0.00,0.000000,,2013-08-19 09:12:00,
2013-08-19 03:43:00,59.0,42.0,-100.00,SE,136,6.0,11.0,54,0.00,,,0.00,0.000000,,2013-08-19 09:43:00,
2013-08-19 03:53:00,59.0,42.0,-100.00,SE,136,6.0,11.0,54,0.00,,,0.00,0.000000,,2013-08-19 09:53:00,
2013-08-19 04:03:00,59.0,42.0,-100.00,SE,136,6.0,11.0,54,0.00,,,0.00,0.000000,,2013-08-19 10:03:00,
2013-08-19 04:43:00,58.0,43.0,-100.00,ESE,109,6.0,9.0,57,0.00,,,0.00,0.000000,,2013-08-19 10:43:00,
2013-08-19 04:52:00,58.0,43.0,-100.00,ESE,109,6.0,9.0,57,0.00,,,0.00,0.000000,,2013-08-19 10:52:00,
2013-08-19 05:02:00,58.0,43.0,-100.00,ESE,109,6.0,9.0,57,0.00,,,0.00,0.000000,,2013-08-19 11:02:00,
2013-08-19 05:11:00,58.0,43.0,-100.00,ESE,109,6.0,9.0,57,0.00,,,0.00,0.000000,,2013-08-19 11:11:00,
2013-08-19 05:45:00,59.0,43.0,-100.00,SE,134,5.0,8.0,56,0.00,,,0.00,0.000000,,2013-08-19 11:45:00,
2013-08-19 05:52:00,59.0,43.0,-100.00,SE,134,5.0,8.0,56,0.00,,,0.00,0.000000,,2013-08-19 11:52:00,
2013-08-19 06:01:00,59.0,43.0,-100.00,SE,134,5.0,8.0,56,0.00,,,0.00,0.000000,,2013-08-19 12:01:00,
2013-08-19 06:11:00,59.0,43.0,-100.00,SE,134,5.0,8.0,56,0.00,,,0.00,0.000000,,2013-08-19 12:11:00,
2013-08-19 06:12:00,59.0,43.0,-100.00,ESE,112,6.0,10.0,55,0.00,,,-99.99,0.000000,,2013-08-19 12:12:00,
2013-08-19 06:42:00,59.0,43.0,-100.00,ESE,112,6.0,10.0,55,0.00,,,0.00,0.000000,,2013-08-19 12:42:00,
2013-08-19 06:52:00,59.0,43.0,-100.00,ESE,112,6.0,10.0,55,0.00,,,-99.99,0.000000,,2013-08-19 12:52:00,
2013-08-19 07:03:00,59.0,43.0,-100.00,ESE,112,6.0,10.0,55,0.00,,,-99.99,0.000000,,2013-08-19 13:03:00,
2013-08-19 07:42:00,59.0,43.0,-100.00,East,101,0.0,7.0,56,0.00,,,0.00,17.000000,,2013-08-19 13:42:00,
2013-08-19 07:52:00,59.0,43.0,-100.00,East,101,0.0,7.0,56,0.00,,,0.00,17.000000,,2013-08-19 13:52:00,
2013-08-19 08:02:00,59.0,43.0,-100.00,East,101,0.0,7.0,56,0.00,,,0.00,17.000000,,2013-08-19 14:02:00,
2013-08-19 08:11:00,59.0,43.0,-100.00,East,101,0.0,7.0,56,0.00,,,0.00,17.000000,,2013-08-19 14:11:00,
2013-08-19 08:42:00,64.0,45.0,-100.00,NNW,347,2.0,6.0,50,0.00,,,0.00,183.000000,,2013-08-19 14:42:00,
2013-08-19 08:52:00,64.0,45.0,-100.00,NNW,347,2.0,6.0,50,0.00,,,0.00,183.000000,,2013-08-19 14:52:00,
2013-08-19 09:01:00,64.0,45.0,-100.00,NNW,347,2.0,6.0,50,0.00,,,0.00,183.000000,,2013-08-19 15:01:00,
2013-08-19 09:11:00,64.0,45.0,-100.00,NNW,347,2.0,6.0,50,0.00,,,0.00,183.000000,,2013-08-19 15:11:00,
2013-08-19 09:12:00,68.0,48.0,-100.00,ESE,112,4.0,6.0,48,0.00,,,0.00,373.000000,,2013-08-19 15:12:00,
2013-08-19 09:44:00,68.0,48.0,-100.00,ESE,112,4.0,6.0,48,0.00,,,0.00,373.000000,,2013-08-19 15:44:00,
2013-08-19 09:54:00,68.0,48.0,-100.00,ESE,112,4.0,6.0,48,0.00,,,0.00,373.000000,,2013-08-19 15:54:00,
2013-08-19 10:05:00,68.0,48.0,-100.00,ESE,112,4.0,6.0,48,0.00,,,0.00,373.000000,,2013-08-19 16:05:00,
2013-08-19 10:12:00,73.0,49.0,-100.00,SSE,151,4.0,9.0,42,0.00,,,0.00,548.000000,,2013-08-19 16:12:00,
2013-08-19 10:47:00,73.0,49.0,-100.00,SSE,151,4.0,9.0,42,0.00,,,0.00,548.000000,,2013-08-19 16:47:00,
2013-08-19 11:03:00,73.0,49.0,-100.00,SSE,151,4.0,9.0,42,0.00,,,0.00,548.000000,,2013-08-19 17:03:00,
2013-08-19 11:12:00,74.0,45.0,-100.00,NW,309,4.0,7.0,36,0.00,,,0.00,712.000000,,2013-08-19 17:12:00,
2013-08-19 11:49:00,74.0,45.0,-100.00,NW,309,4.0,7.0,36,0.00,,,0.00,712.000000,,2013-08-19 17:49:00,
2013-08-19 11:57:00,74.0,45.0,-100.00,NW,309,4.0,7.0,36,0.00,,,0.00,712.000000,,2013-08-19 17:57:00,
2013-08-19 12:05:00,74.0,45.0,-100.00,NW,309,4.0,7.0,36,0.00,,,0.00,712.000000,,2013-08-19 18:05:00,
2013-08-19 12:12:00,77.0,45.0,-100.00,West,278,4.0,10.0,32,0.00,,,0.00,824.000000,,2013-08-19 18:12:00,
2013-08-19 12:50:00,-999.0,-99.9,-100.00,West,278,4.0,10.0,32,0.00,,,0.00,824.000000,,2013-08-19 18:50:00,
2013-08-19 13:00:00,-999.0,-99.9,-100.00,West,278,4.0,10.0,32,0.00,,,0.00,824.000000,,2013-08-19 19:00:00,
2013-08-19 13:07:00,77.0,45.0,-100.00,West,278,4.0,10.0,32,0.00,,,0.00,824.000000,,2013-08-19 19:07:00,
2013-08-19 13:12:00,81.0,47.0,-100.00,SSW,198,6.0,11.0,30,0.00,,,0.00,908.000000,,2013-08-19 19:12:00,
2013-08-19 13:50:00,81.0,47.0,-100.00,SSW,198,6.0,11.0,30,0.00,,,0.00,908.000000,,2013-08-19 19:50:00,
2013-08-19 13:59:00,81.0,47.0,-100.00,SSW,198,6.0,11.0,30,0.00,,,0.00,908.000000,,2013-08-19 19:59:00,
2013-08-19 14:08:00,81.0,47.0,-100.00,SSW,198,6.0,11.0,30,0.00,,,0.00,908.000000,,2013-08-19 20:08:00,
2013-08-19 14:12:00,83.0,46.0,-100.00,SSW,195,7.0,14.0,27,0.00,,,0.00,967.000000,,2013-08-19 20:12:00,
2013-08-19 14:50:00,83.0,46.0,-100.00,SSW,195,7.0,14.0,27,0.00,,,0.00,967.000000,,2013-08-19 20:50:00,
2013-08-19 15:00:00,-999.0,-99.9,-100.00,SSW,195,7.0,14.0,-999,-99.99,,,-99.99,967.000000,,2013-08-19 21:00:00,
2013-08-19 15:08:00,83.0,46.0,-100.00,SSW,195,7.0,14.0,27,0.00,,,0.00,967.000000,,2013-08-19 21:08:00,
2013-08-19 15:46:00,74.0,41.0,-100.00,North,349,7.0,11.0,31,0.00,,,0.00,513.000000,,2013-08-19 21:46:00,
2013-08-19 15:54:00,74.0,41.0,-100.00,North,349,7.0,11.0,31,0.00,,,0.00,513.000000,,2013-08-19 21:54:00,
2013-08-19 16:06:00,74.0,41.0,-100.00,North,349,7.0,11.0,31,0.00,,,0.00,513.000000,,2013-08-19 22:06:00,
2013-08-19 16:12:00,64.0,45.0,-100.00,North,6,10.0,24.0,51,0.00,,,0.00,86.000000,,2013-08-19 22:12:00,
2013-08-19 16:44:00,64.0,45.0,-100.00,North,6,10.0,24.0,51,0.00,,,0.00,86.000000,,2013-08-19 22:44:00,
2013-08-19 16:54:00,64.0,45.0,-100.00,North,6,10.0,24.0,51,0.00,,,0.00,86.000000,,2013-08-19 22:54:00,
2013-08-19 17:05:00,64.0,45.0,-100.00,North,6,10.0,24.0,51,0.00,,,0.00,86.000000,,2013-08-19 23:05:00,
2013-08-19 17:48:00,69.0,42.0,-100.00,NNE,14,4.0,16.0,38,0.00,,,0.00,73.000000,,2013-08-19 23:48:00,
2013-08-19 17:55:00,69.0,42.0,-100.00,NNE,14,4.0,16.0,38,0.00,,,0.00,73.000000,,2013-08-19 23:55:00,
2013-08-19 18:02:00,69.0,42.0,-100.00,NNE,14,4.0,16.0,38,0.00,,,0.00,73.000000,,2013-08-20 00:02:00,
2013-08-19 18:11:00,69.0,42.0,-100.00,NNE,14,4.0,16.0,38,0.00,,,0.00,73.000000,,2013-08-20 00:11:00,
2013-08-19 18:42:00,66.0,39.0,-100.00,NNW,336,6.0,9.0,37,0.00,,,0.00,118.000000,,2013-08-20 00:42:00,
2013-08-19 18:52:00,66.0,39.0,-100.00,NNW,336,6.0,9.0,37,0.00,,,0.00,118.000000,,2013-08-20 00:52:00,
2013-08-19 19:03:00,66.0,39.0,-100.00,NNW,336,6.0,9.0,37,0.00,,,0.00,118.000000,,2013-08-20 01:03:00,
2013-08-19 19:11:00,66.0,39.0,-100.00,NNW,336,6.0,9.0,37,0.00,,,0.00,118.000000,,2013-08-20 01:11:00,
2013-08-19 19:42:00,67.0,40.0,-100.00,NW,306,4.0,9.0,37,0.00,,,0.00,70.000000,,2013-08-20 01:42:00,
2013-08-19 19:52:00,67.0,40.0,-100.00,NW,306,4.0,9.0,37,0.00,,,0.00,70.000000,,2013-08-20 01:52:00,
2013-08-19 20:02:00,67.0,40.0,-100.00,NW,306,4.0,9.0,37,0.00,,,0.00,70.000000,,2013-08-20 02:02:00,
2013-08-19 20:11:00,67.0,40.0,-100.00,NW,306,4.0,9.0,37,0.00,,,0.00,70.000000,,2013-08-20 02:11:00,
2013-08-19 20:42:00,64.0,44.0,-100.00,South,190,7.0,16.0,49,0.00,,,-99.99,12.000000,,2013-08-20 02:42:00,
2013-08-19 20:52:00,64.0,44.0,-100.00,South,190,7.0,16.0,49,0.00,,,-99.99,12.000000,,2013-08-20 02:52:00,
2013-08-19 21:02:00,64.0,44.0,-100.00,South,190,7.0,16.0,49,0.00,,,-99.99,12.000000,,2013-08-20 03:02:00,
2013-08-19 21:11:00,64.0,44.0,-100.00,South,190,7.0,16.0,49,0.00,,,-99.99,12.000000,,2013-08-20 03:11:00,
2013-08-19 21:12:00,62.0,44.0,-100.00,SE,144,8.0,11.0,52,0.00,,,0.00,0.000000,,2013-08-20 03:12:00,
2013-08-19 21:43:00,62.0,44.0,-100.00,SE,144,8.0,11.0,52,0.00,,,0.00,0.000000,,2013-08-20 03:43:00,
2013-08-19 21:54:00,62.0,44.0,-100.00,SE,144,8.0,11.0,52,0.00,,,0.00,0.000000,,2013-08-20 03:54:00,
2013-08-19 22:03:00,62.0,44.0,-100.00,SE,144,8.0,11.0,52,0.00,,,0.00,0.000000,,2013-08-20 04:03:00,
2013-08-19 22:12:00,62.0,44.0,-100.00,North,10,5.0,9.0,52,0.00,,,0.00,0.000000,,2013-08-20 04:12:00,
2013-08-19 22:43:00,62.0,44.0,-100.00,North,10,5.0,9.0,52,0.00,,,0.00,0.000000,,2013-08-20 04:43:00,
2013-08-19 22:53:00,62.0,44.0,-100.00,North,10,5.0,9.0,52,0.00,,,0.00,0.000000,,2013-08-20 04:53:00,
2013-08-19 23:02:00,62.0,44.0,-100.00,North,10,5.0,9.0,52,0.00,,,0.00,0.000000,,2013-08-20 05:02:00,
2013-08-19 23:43:00,60.0,43.0,-100.00,NNE,12,6.0,13.0,53,0.00,,,0.00,0.000000,,2013-08-20 05:43:00,
2013-08-19 23:52:00,60.0,43.0,-100.00,NNE,12,6.0,13.0,53,0.00,,,0.00,0.000000,,2013-08-20 05:52:00,